Latest Weather Observations for Dennes Point

IDT60901

Issued at 3:31 pm EST Saturday 29 April 2017 (issued every 10 minutes, with the page automatically refreshed every 10 minutes)

About weather observations | Map of Hobart area stations | Latest observations for Hobart area | Other Formats
Station Details ID: 094255 Name: DENNES POINT Lat: -43.06 Lon: 147.36 Height: 5.67 m
Data from the previous 72 hours. | See also: Recent months at Dennes Point
Date/Time
EST
Temp
°C
App
Temp
°C
Dew
Point
°C
Rel
Hum
%
Delta-T
°C
Wind Press
QNH
hPa
Press
MSL
hPa
Rain since
9am
mm
Dir  Spd
km/h
Gust
km/h
Spd
kts
Gust
kts
29/03:30pm 14.5 11.5 9.3 71 2.7 S 15 24 8 13 1018.5 1018.5 0.0
29/03:00pm 15.5 11.7 9.0 65 3.3 S 19 32 10 17 1018.1 1018.1 0.0
29/02:30pm 16.6 12.9 9.5 63 3.7 S 19 26 10 14 1017.7 1017.7 0.0
29/02:00pm 16.3 12.5 9.0 62 3.7 S 19 28 10 15 1017.4 1017.4 0.0
29/01:30pm 16.9 13.9 9.3 61 3.9 SSW 15 22 8 12 1017.2 1017.2 0.0
29/01:00pm 15.8 13.6 9.2 65 3.4 SSE 11 20 6 11 1017.3 1017.3 0.0
29/12:30pm 15.7 14.2 9.1 65 3.4 S 7 13 4 7 1017.4 1017.4 0.0
29/12:00pm 15.2 13.4 9.6 69 2.9 S 9 13 5 7 1017.5 1017.5 0.0
29/11:30am 15.8 13.3 8.1 60 3.9 SW 11 17 6 9 1017.4 1017.4 0.0
29/11:00am 16.1 12.5 8.3 60 3.9 SW 17 24 9 13 1017.0 1017.0 0.0
29/10:30am 15.6 11.5 7.9 60 3.9 SW 19 24 10 13 1016.6 1016.6 0.0
29/10:00am 15.6 11.6 8.4 62 3.6 WSW 19 26 10 14 1016.3 1016.3 0.0
29/09:30am 14.6 10.2 7.4 62 3.5 SW 20 30 11 16 1016.2 1016.2 0.0
29/09:00am 15.0 10.6 7.5 61 3.7 SW 20 26 11 14 1015.5 1015.5 0.0
29/08:30am 14.7 10.0 7.7 63 3.5 WSW 22 28 12 15 1015.1 1015.1 0.0
29/08:00am 14.0 8.6 8.2 68 2.9 SW 26 33 14 18 1014.5 1014.5 0.0
29/07:30am 14.1 9.9 8.1 67 3.0 SW 20 30 11 16 1014.0 1014.0 0.0
29/07:00am 13.2 10.6 7.9 70 2.6 SW 11 17 6 9 1013.5 1013.5 0.0
29/06:30am 14.0 9.9 8.0 67 3.0 SW 19 28 10 15 1013.1 1013.1 0.0
29/06:00am 13.8 8.4 8.2 69 2.8 SW 26 35 14 19 1012.6 1012.6 0.0
29/05:30am 14.1 8.6 7.6 65 3.2 SW 26 39 14 21 1011.9 1011.9 0.0
29/05:00am 14.2 9.4 7.5 64 3.3 SW 22 35 12 19 1011.7 1011.7 0.0
29/04:30am 14.7 8.3 7.0 60 3.8 WSW 30 43 16 23 1011.1 1011.1 0.0
29/04:00am 14.6 7.3 7.4 62 3.6 WSW 35 46 19 25 1010.5 1010.5 0.0
29/03:30am 14.5 7.2 7.1 61 3.6 WSW 35 44 19 24 1010.3 1010.3 0.0
29/03:00am 14.4 6.5 7.9 65 3.2 WSW 39 48 21 26 1010.2 1010.2 0.0
29/02:30am 14.4 6.0 7.2 62 3.5 W 41 50 22 27 1010.1 1010.1 0.0
29/02:00am 14.3 8.6 9.9 75 2.3 WSW 30 37 16 20 1010.4 1010.4 0.0
29/01:30am 14.3 9.4 10.1 76 2.2 SW 26 37 14 20 1010.5 1010.5 0.0
29/01:00am 15.7 10.9 10.2 70 2.9 WSW 26 44 14 24 1010.5 1010.5 0.0
29/12:30am 15.7 10.7 9.6 67 3.2 WSW 26 39 14 21 1009.9 1009.9 0.0
29/12:21am 15.8 9.7 9.7 67 3.2 W 32 50 17 27 1009.9 1009.9 0.0
29/12:14am 16.1 10.3 9.5 65 3.4 W 30 50 16 27 1009.7 1009.7 0.0
29/12:00am 15.7 11.8 9.6 67 3.2 WSW 20 30 11 16 1009.9 1009.9 0.0
 
Date/Time
EST
Temp
°C
App
Temp
°C
Dew
Point
°C
Rel
Hum
%
Delta-T
°C
Wind Press
QNH
hPa
Press
MSL
hPa
Rain since
9am
mm
Dir  Spd
km/h
Gust
km/h
Spd
kts
Gust
kts
28/11:30pm 16.1 12.7 9.3 64 3.5 WSW 17 24 9 13 1009.8 1009.8 0.0
28/11:00pm 16.2 11.8 8.9 62 3.8 WSW 22 32 12 17 1009.7 1009.7 0.0
28/10:30pm 16.1 11.5 9.5 65 3.4 WSW 24 35 13 19 1009.6 1009.6 0.0
28/10:00pm 16.0 11.8 9.7 66 3.3 WNW 22 35 12 19 1009.7 1009.7 0.0
28/09:30pm 16.4 10.9 9.3 63 3.7 W 28 39 15 21 1009.7 1009.7 0.0
28/09:00pm 16.5 10.3 9.2 62 3.8 W 32 41 17 22 1009.7 1009.7 0.0
28/08:30pm 16.2 11.0 8.9 62 3.7 W 26 39 14 21 1010.0 1010.0 0.0
28/08:00pm 15.8 11.8 9.2 65 3.4 W 20 28 11 15 1010.0 1010.0 0.0
28/07:30pm 15.4 11.7 9.5 68 3.0 W 19 24 10 13 1010.0 1010.0 0.0
28/07:00pm 15.7 11.9 8.9 64 3.5 W 19 24 10 13 1010.0 1010.0 0.0
28/06:30pm 15.7 12.2 8.9 64 3.5 WNW 17 22 9 12 1010.2 1010.2 0.0
28/06:00pm 15.8 11.9 8.5 62 3.7 W 19 26 10 14 1010.2 1010.2 0.0
28/05:30pm 16.1 11.9 8.3 60 4.0 WNW 20 30 11 16 1010.2 1010.2 0.0
28/05:00pm 16.3 11.2 7.8 57 4.3 WNW 24 35 13 19 1010.5 1010.5 0.0
28/04:30pm 16.5 11.6 6.9 53 4.7 WNW 22 32 12 17 1010.6 1010.6 0.0
28/04:00pm 17.0 10.9 6.8 51 5.1 WNW 28 37 15 20 1010.7 1010.7 0.0
28/03:30pm 17.6 10.2 6.8 49 5.4 W 35 46 19 25 1010.8 1010.8 0.0
28/03:00pm 17.8 10.9 7.2 50 5.3 W 33 43 18 23 1010.7 1010.7 0.0
28/02:30pm 18.4 13.3 7.5 49 5.5 W 24 33 13 18 1011.0 1011.0 0.0
28/02:00pm 18.3 11.6 8.0 51 5.3 W 33 43 18 23 1010.7 1010.7 0.0
28/01:30pm 18.4 11.8 8.4 52 5.2 W 33 43 18 23 1010.9 1010.9 0.0
28/01:00pm 18.5 15.8 9.0 54 5.0 W 13 24 7 13 1011.5 1011.5 0.0
28/12:30pm 17.4 16.2 9.6 60 4.1 ENE 6 7 3 4 1011.9 1011.9 0.0
28/12:00pm 16.3 15.3 10.4 68 3.1 NE 6 9 3 5 1012.4 1012.4 0.0
28/11:30am 15.9 14.4 9.3 65 3.4 N 7 11 4 6 1013.0 1013.0 0.0
28/11:00am 16.4 14.6 7.1 54 4.6 WNW 6 11 3 6 1013.3 1013.3 0.0
28/10:30am 16.1 13.1 7.6 57 4.2 NW 13 20 7 11 1013.7 1013.7 0.0
28/10:00am 14.8 13.0 9.6 71 2.7 N 9 15 5 8 1014.1 1014.1 0.0
28/09:30am 15.9 11.9 8.4 61 3.8 WNW 19 22 10 12 1014.0 1014.0 0.0
28/09:00am 15.6 11.5 7.9 60 3.9 WNW 19 26 10 14 1014.3 1014.3 0.0
28/08:30am 15.2 10.1 7.7 61 3.7 W 24 33 13 18 1014.3 1014.3 0.0
28/08:00am 14.9 11.6 7.9 63 3.5 WNW 15 19 8 10 1014.4 1014.4 0.0
28/07:30am 14.9 10.6 7.7 62 3.6 WNW 20 30 11 16 1014.2 1014.2 0.0
28/07:00am 14.7 9.6 7.7 63 3.5 NW 24 33 13 18 1014.2 1014.2 0.0
28/06:30am 14.4 10.6 7.7 64 3.3 NW 17 26 9 14 1014.2 1014.2 0.0
28/06:00am 12.6 11.8 6.6 67 2.9 CALM 0 6 0 3 1014.3 1014.3 0.0
28/05:30am 12.5 10.5 7.2 70 2.6 S 7 9 4 5 1014.2 1014.2 0.0
28/05:00am 12.9 11.3 7.8 71 2.5 SSW 6 7 3 4 1014.1 1014.1 0.0
28/04:30am 13.5 12.0 8.4 71 2.5 SSW 6 13 3 7 1014.0 1014.0 0.0
28/04:00am 12.6 11.0 8.1 74 2.2 S 6 9 3 5 1013.9 1013.9 0.0
28/03:30am 12.7 11.1 8.0 73 2.3 S 6 7 3 4 1014.0 1014.0 0.0
28/03:00am 13.3 11.7 8.6 73 2.4 SSW 7 11 4 6 1013.7 1013.7 0.0
28/02:30am 13.5 11.9 8.6 72 2.5 SSW 7 13 4 7 1013.8 1013.8 0.0
28/02:00am 13.2 12.2 8.9 75 2.2 WSW 4 7 2 4 1013.7 1013.7 0.0
28/01:30am 13.7 12.2 8.5 71 2.6 SSE 6 7 3 4 1013.5 1013.5 0.0
28/01:00am 13.9 13.1 8.1 68 2.9 NW 2 4 1 2 1013.4 1013.4 0.0
28/12:30am 13.5 13.1 8.4 71 2.5 CALM 0 0 0 0 1013.2 1013.2 0.0
28/12:00am 13.3 12.9 8.2 71 2.5 CALM 0 0 0 0 1013.4 1013.4 0.0
 
Date/Time
EST
Temp
°C
App
Temp
°C
Dew
Point
°C
Rel
Hum
%
Delta-T
°C
Wind Press
QNH
hPa
Press
MSL
hPa
Rain since
9am
mm
Dir  Spd
km/h
Gust
km/h
Spd
kts
Gust
kts
27/11:30pm 13.6 12.8 8.0 69 2.8 W 2 7 1 4 1013.5 1013.5 0.0
27/11:00pm 12.9 11.6 7.8 71 2.5 W 4 7 2 4 1013.7 1013.7 0.0
27/10:30pm 13.9 12.3 7.9 67 3.0 WNW 6 11 3 6 1013.8 1013.8 0.0
27/10:00pm 13.2 12.6 7.4 68 2.8 CALM 0 0 0 0 1013.9 1013.9 0.0
27/09:30pm 13.4 11.7 7.4 67 2.9 SW 6 13 3 7 1013.8 1013.8 0.0
27/09:00pm 13.0 11.8 6.6 65 3.1 S 2 4 1 2 1013.8 1013.8 0.0
27/08:30pm 13.7 11.8 6.8 63 3.3 NNW 6 9 3 5 1013.5 1013.5 0.0
27/08:00pm 13.3 11.3 7.1 66 3.0 NNW 7 13 4 7 1013.8 1013.8 0.0
27/07:30pm 13.4 11.6 7.0 65 3.1 NNW 6 7 3 4 1014.0 1014.0 0.0
27/07:00pm 13.2 11.6 6.3 63 3.3 N 4 7 2 4 1014.1 1014.1 0.0
27/06:30pm 13.1 10.5 6.0 62 3.4 NNW 9 13 5 7 1014.3 1014.3 0.0
27/06:00pm 13.2 10.2 6.1 62 3.4 NNW 11 15 6 8 1014.4 1014.4 0.0
27/05:30pm 13.0 10.4 5.9 62 3.3 NNE 9 13 5 7 1014.5 1014.5 0.0
27/05:00pm 13.0 10.0 6.1 63 3.3 NNW 11 15 6 8 1014.7 1014.7 0.0
27/04:30pm 12.9 10.7 5.1 59 3.6 NW 6 9 3 5 1015.1 1015.1 0.0
27/04:00pm 13.2 10.7 4.6 56 3.9 NW 7 11 4 6 1015.2 1015.2 0.0
27/03:30pm 13.9 10.9 4.2 52 4.4 WNW 9 13 5 7 1015.4 1015.4 0.0
27/03:00pm 14.2 9.8 4.5 52 4.5 W 17 22 9 12 1015.6 1015.6 0.0
27/02:30pm 14.4 9.7 5.2 54 4.3 W 19 30 10 16 1015.5 1015.5 0.0
27/02:00pm 13.5 9.1 4.9 56 4.0 W 17 24 9 13 1015.6 1015.6 0.0
27/01:30pm 13.7 8.8 4.0 52 4.4 W 19 26 10 14 1016.0 1016.0 0.0
27/01:00pm 13.8 8.0 4.4 53 4.3 W 24 30 13 16 1016.5 1016.5 0.0
27/12:30pm 13.4 8.4 3.8 52 4.3 W 19 26 10 14 1017.4 1017.4 0.0
27/12:00pm 13.1 8.6 4.0 54 4.1 W 17 24 9 13 1017.7 1017.7 0.0
27/11:30am 12.8 7.1 2.9 51 4.4 W 22 32 12 17 1018.1 1018.1 0.0
27/11:00am 12.4 7.0 4.4 58 3.6 W 22 30 12 16 1018.8 1018.8 0.0
27/10:30am 11.6 5.7 4.1 60 3.4 W 24 32 13 17 1018.7 1018.7 0.0
27/10:00am 11.3 5.8 3.8 60 3.3 W 22 30 12 16 1019.2 1019.2 0.0
27/09:30am 10.9 5.8 3.9 62 3.1 W 20 26 11 14 1019.0 1019.0 0.0
27/09:00am 10.0 6.1 3.5 64 2.8 WNW 13 24 7 13 1018.8 1018.8 1.2
27/08:30am 9.2 6.5 3.6 68 2.4 WNW 7 11 4 6 1018.9 1018.9 1.2
27/08:00am 8.2 4.2 2.7 68 2.3 W 13 17 7 9 1018.8 1018.8 1.2
27/07:30am 7.2 4.2 2.1 70 2.1 W 7 13 4 7 1018.8 1018.8 1.2
27/07:00am 7.2 2.4 2.7 73 1.9 W 17 22 9 12 1018.6 1018.6 1.2
27/06:30am 6.8 2.7 2.3 73 1.8 W 13 17 7 9 1018.6 1018.6 1.2
27/06:00am 7.0 2.6 2.5 73 1.9 W 15 19 8 10 1018.5 1018.5 1.2
27/05:30am 6.9 2.4 2.2 72 1.9 W 15 20 8 11 1018.6 1018.6 1.2
27/05:00am 6.3 2.9 1.8 73 1.8 W 9 15 5 8 1018.5 1018.5 1.2
27/04:30am 6.9 3.2 2.4 73 1.9 W 11 15 6 8 1018.2 1018.2 1.2
27/04:00am 6.8 2.8 2.9 76 1.6 W 13 20 7 11 1018.1 1018.1 1.2
27/03:30am 6.8 1.7 3.1 77 1.5 W 19 22 10 12 1017.9 1017.9 1.2
27/03:00am 7.0 2.2 2.5 73 1.9 W 17 20 9 11 1018.0 1018.0 1.2
27/02:30am 7.2 2.7 2.3 71 2.0 WSW 15 22 8 12 1018.3 1018.3 1.2
27/02:00am 7.2 2.8 2.7 73 1.9 W 15 20 8 11 1018.1 1018.1 1.2
27/01:30am 7.7 2.6 3.2 73 1.9 W 19 26 10 14 1018.1 1018.1 1.2
27/01:00am 8.0 2.1 3.7 74 1.8 WSW 24 32 13 17 1017.9 1017.9 1.2
27/12:30am 7.5 3.2 3.4 75 1.7 WSW 15 24 8 13 1018.2 1018.2 1.2
27/12:00am 7.3 3.2 2.0 69 2.2 SSW 13 20 7 11 1017.8 1017.8 1.2
 
Date/Time
EST
Temp
°C
App
Temp
°C
Dew
Point
°C
Rel
Hum
%
Delta-T
°C
Wind Press
QNH
hPa
Press
MSL
hPa
Rain since
9am
mm
Dir  Spd
km/h
Gust
km/h
Spd
kts
Gust
kts
26/11:30pm 7.2 3.2 2.9 74 1.8 WSW 13 20 7 11 1017.4 1017.4 1.2
26/11:00pm 7.9 3.1 2.6 69 2.2 SW 17 28 9 15 1017.5 1017.5 1.2
26/10:30pm 6.3 3.1 2.9 79 1.4 SSW 9 15 5 8 1017.3 1017.3 1.2
26/10:00pm 7.2 3.3 3.3 76 1.6 SSW 13 19 7 10 1017.2 1017.2 1.2
26/09:30pm 6.9 3.8 3.7 80 1.4 SW 9 13 5 7 1017.1 1017.1 1.2
26/09:00pm 6.9 3.6 4.6 85 1.0 SSW 11 15 6 8 1017.0 1017.0 1.2
26/08:30pm 7.4 3.9 3.6 77 1.6 SSW 11 15 6 8 1016.7 1016.7 1.0
26/08:00pm 7.6 3.0 3.5 75 1.7 SSW 17 22 9 12 1016.1 1016.1 1.0
26/07:30pm 8.1 2.3 4.5 78 1.6 WSW 24 35 13 19 1015.8 1015.8 1.0
26/07:00pm 8.0 2.2 4.4 78 1.6 WSW 24 32 13 17 1015.3 1015.3 1.0
26/06:30pm 7.7 3.9 3.7 76 1.7 SW 13 19 7 10 1014.6 1014.6 1.0
26/06:00pm 7.4 2.5 4.2 80 1.4 SSW 19 30 10 16 1014.3 1014.3 1.0
26/05:30pm 8.2 4.2 5.1 81 1.4 SW 15 26 8 14 1013.5 1013.5 0.8
26/05:00pm 8.2 4.9 4.8 79 1.5 SW 11 22 6 12 1013.0 1013.0 0.8
26/04:30pm 8.2 3.2 4.6 78 1.6 SSW 20 32 11 17 1012.7 1012.7 0.8
26/04:09pm 8.1 1.5 4.3 77 1.7 SW 28 46 15 25 1012.4 1012.4 0.8
26/04:00pm 8.2 0.1 5.3 82 1.3 SW 37 50 20 27 1011.9 1011.9 0.6
26/03:52pm 8.6 2.2 5.4 80 1.4 SW 28 46 15 25 1011.7 1011.7 0.6

Latest Capital City Observations: Canberra | Sydney | Melbourne | Brisbane | Adelaide | Perth | Hobart | Darwin

Other Formats:

Comma delimited format used in spreadsheet applications
http://www.bom.gov.au/fwo/IDT60901/IDT60901.94988.axf

JavaScript Object Notation format (JSON) in row-major order
http://www.bom.gov.au/fwo/IDT60901/IDT60901.94988.json